Time;durP1;ratioP1;P1;durP2;ratioP2;P2;SDS_P1;SDS_P2;PMS_P1;PMS_P2;Temp;Humidity;BMP_temperature;BMP_pressure;BME280_temperature;BME280_humidity;BME280_pressure;Samples;Min_cycle;Max_cycle;Signal;HPM_P1;HPM_P2
2024/04/04 00:01:55;;;;;;;1.23;1.20;;;11.30;99.90;;;;;;5076211;28;20207;-74
2024/04/04 00:04:21;;;;;;;1.37;1.13;;;11.30;99.90;;;;;;5069309;28;20207;-74
2024/04/04 00:06:48;;;;;;;1.40;1.30;;;11.30;99.90;;;;;;5070930;28;20207;-73
2024/04/04 00:09:14;;;;;;;1.13;1.13;;;11.20;99.90;;;;;;5089429;28;20217;-72
2024/04/04 00:11:41;;;;;;;1.30;1.30;;;11.10;99.90;;;;;;5089684;28;20214;-73
2024/04/04 00:14:07;;;;;;;3.43;1.30;;;11.10;99.90;;;;;;5089312;28;20242;-73
2024/04/04 00:16:36;;;;;;;1.40;1.30;;;11.10;99.90;;;;;;5082851;28;20654;-72
2024/04/04 00:19:02;;;;;;;1.23;1.13;;;11.00;99.90;;;;;;5081185;28;20350;-73
2024/04/04 00:21:29;;;;;;;1.50;1.40;;;11.00;99.90;;;;;;5068825;28;20576;-73
2024/04/04 00:23:56;;;;;;;1.43;1.33;;;11.00;99.90;;;;;;5068927;28;20234;-73
2024/04/04 00:26:23;;;;;;;1.10;1.10;;;11.00;99.90;;;;;;5068728;28;20680;-73
2024/04/04 00:28:50;;;;;;;1.00;1.00;;;11.00;99.90;;;;;;5085794;28;20247;-73
2024/04/04 00:31:16;;;;;;;1.40;1.30;;;10.90;99.90;;;;;;5087835;28;20223;-72
2024/04/04 00:33:44;;;;;;;1.27;1.20;;;11.00;99.90;;;;;;5088723;28;20325;-72
2024/04/04 00:36:11;;;;;;;1.83;1.20;;;11.00;99.90;;;;;;5088676;28;20641;-73
2024/04/04 00:38:37;;;;;;;2.40;1.20;;;11.00;99.90;;;;;;5088791;28;20663;-72
2024/04/04 00:41:04;;;;;;;1.40;1.40;;;11.00;99.90;;;;;;5088717;28;20624;-72
2024/04/04 00:43:30;;;;;;;1.93;1.17;;;11.00;99.90;;;;;;5071332;28;20276;-72
2024/04/04 00:45:58;;;;;;;1.23;1.23;;;11.00;99.90;;;;;;5079043;28;20728;-73
2024/04/04 00:48:24;;;;;;;1.07;1.07;;;11.00;99.90;;;;;;5072681;28;20244;-73
2024/04/04 00:50:54;;;;;;;1.20;1.20;;;11.00;99.90;;;;;;5068663;28;20211;-73
2024/04/04 00:53:21;;;;;;;1.20;1.10;;;11.00;99.90;;;;;;5068377;28;20214;-74
2024/04/04 00:55:49;;;;;;;1.23;1.07;;;11.00;99.90;;;;;;5068957;28;20199;-74
2024/04/04 00:58:15;;;;;;;1.13;1.13;;;11.00;99.90;;;;;;5067858;28;20919;-74
2024/04/04 01:00:42;;;;;;;1.50;1.40;;;11.00;99.90;;;;;;5082483;28;20618;-73
2024/04/04 01:03:08;;;;;;;1.43;1.33;;;11.00;99.90;;;;;;5079084;28;20290;-73
2024/04/04 01:05:35;;;;;;;1.77;1.67;;;10.90;99.90;;;;;;5069699;28;20627;-73
2024/04/04 01:08:03;;;;;;;1.30;1.30;;;10.90;99.90;;;;;;5088440;28;20290;-74
2024/04/04 01:10:30;;;;;;;1.40;1.33;;;10.90;99.90;;;;;;5087592;28;20650;-74
2024/04/04 01:12:55;;;;;;;1.50;1.40;;;10.80;99.90;;;;;;5088085;28;20297;-74
2024/04/04 01:15:22;;;;;;;1.60;1.50;;;10.80;99.90;;;;;;5088022;28;20317;-74
2024/04/04 01:17:48;;;;;;;2.37;1.40;;;10.80;99.90;;;;;;5086959;28;20286;-74
2024/04/04 01:20:15;;;;;;;1.40;1.30;;;10.80;99.90;;;;;;5088365;28;20321;-74
2024/04/04 01:22:41;;;;;;;1.50;1.40;;;10.80;99.90;;;;;;5088101;28;20287;-74
2024/04/04 01:25:09;;;;;;;1.50;1.40;;;10.80;99.90;;;;;;5085028;28;20203;-73
2024/04/04 01:27:35;;;;;;;1.60;1.50;;;10.90;99.90;;;;;;5072711;28;20212;-74
2024/04/04 01:30:02;;;;;;;1.60;1.50;;;10.80;99.90;;;;;;5067817;28;20210;-74
2024/04/04 01:32:28;;;;;;;1.57;1.43;;;10.90;99.90;;;;;;5072430;28;20535;-73
2024/04/04 01:34:55;;;;;;;1.97;1.87;;;10.80;99.90;;;;;;5088060;28;20213;-73
2024/04/04 01:37:21;;;;;;;1.67;1.57;;;10.70;99.90;;;;;;5079797;28;20663;-75
2024/04/04 01:39:48;;;;;;;1.30;1.30;;;10.70;99.90;;;;;;5086429;28;20258;-75
2024/04/04 01:42:15;;;;;;;1.57;1.47;;;10.70;99.90;;;;;;5087840;28;20203;-76
2024/04/04 01:44:42;;;;;;;1.90;1.80;;;10.70;99.90;;;;;;5087926;28;20208;-76
2024/04/04 01:47:08;;;;;;;1.87;1.70;;;10.70;99.90;;;;;;5085440;28;20292;-75
2024/04/04 01:49:35;;;;;;;2.30;1.50;;;10.70;99.90;;;;;;5087980;28;20297;-75
2024/04/04 01:52:01;;;;;;;1.70;1.60;;;10.80;99.90;;;;;;5087544;28;20199;-76
2024/04/04 01:54:28;;;;;;;1.67;1.60;;;10.70;99.90;;;;;;5087605;28;20217;-75
2024/04/04 01:56:54;;;;;;;1.60;1.50;;;10.70;99.90;;;;;;5086388;28;20206;-75
2024/04/04 01:59:22;;;;;;;1.93;1.80;;;10.70;99.90;;;;;;5067367;28;20237;-75
2024/04/04 02:01:48;;;;;;;1.77;1.67;;;10.70;99.90;;;;;;5067590;28;20207;-75
2024/04/04 02:04:15;;;;;;;1.57;1.50;;;10.70;99.90;;;;;;5084071;28;20294;-75
2024/04/04 02:06:41;;;;;;;2.60;2.00;;;10.70;99.90;;;;;;5087323;28;20238;-75
2024/04/04 02:09:09;;;;;;;1.83;1.73;;;10.80;99.90;;;;;;5084661;28;20265;-75
2024/04/04 02:11:35;;;;;;;1.90;1.80;;;10.80;99.90;;;;;;5067499;28;20207;-75
2024/04/04 02:14:02;;;;;;;1.70;1.60;;;10.80;99.90;;;;;;5066439;28;20265;-75
2024/04/04 02:16:30;;;;;;;2.00;1.90;;;10.80;99.90;;;;;;5066878;28;20844;-73
2024/04/04 02:18:57;;;;;;;2.00;1.90;;;10.70;99.90;;;;;;5074171;28;20230;-73
2024/04/04 02:21:23;;;;;;;2.50;2.07;;;10.80;99.90;;;;;;5074787;28;20218;-73
2024/04/04 02:23:50;;;;;;;2.40;2.20;;;10.80;99.90;;;;;;5079891;28;20223;-74
2024/04/04 02:26:16;;;;;;;2.37;1.97;;;10.70;99.90;;;;;;5078614;28;20294;-69
2024/04/04 02:28:43;;;;;;;2.80;2.60;;;10.70;99.90;;;;;;5077570;28;20836;-73
2024/04/04 02:31:09;;;;;;;2.20;2.10;;;10.70;99.90;;;;;;5069747;28;20606;-73
2024/04/04 02:33:37;;;;;;;2.53;2.43;;;10.70;99.90;;;;;;5083470;28;20744;-73
2024/04/04 02:36:04;;;;;;;2.20;2.10;;;10.70;99.90;;;;;;5092345;28;20209;-73
2024/04/04 02:38:31;;;;;;;2.27;2.17;;;10.70;99.90;;;;;;5080964;28;20203;-73
2024/04/04 02:40:57;;;;;;;2.00;1.90;;;10.70;99.90;;;;;;5080262;28;20253;-73
2024/04/04 02:43:23;;;;;;;2.20;2.10;;;10.70;99.90;;;;;;5099429;28;20202;-73
2024/04/04 02:45:58;;;;;;;2.23;2.13;;;10.70;99.90;;;;;;5080237;28;20212;-73
2024/04/04 02:48:26;;;;;;;2.50;2.40;;;10.70;99.90;;;;;;5081816;28;20198;-74
2024/04/04 02:50:54;;;;;;;2.80;2.60;;;10.70;99.90;;;;;;5064935;28;20666;-73
2024/04/04 02:53:21;;;;;;;2.30;2.20;;;10.70;99.90;;;;;;5064318;28;20666;-73
2024/04/04 02:55:53;;;;;;;2.13;2.03;;;10.80;99.90;;;;;;5064487;28;20235;-73
2024/04/04 02:58:20;;;;;;;2.40;2.20;;;10.80;99.90;;;;;;5079236;28;20407;-73
2024/04/04 03:00:46;;;;;;;2.23;2.13;;;10.80;99.90;;;;;;5066761;28;20306;-72
2024/04/04 03:03:13;;;;;;;2.87;2.07;;;10.80;99.90;;;;;;5064619;28;20207;-73
2024/04/04 03:05:39;;;;;;;2.20;2.10;;;10.70;99.90;;;;;;5064967;28;20280;-73
2024/04/04 03:08:08;;;;;;;2.00;1.90;;;10.70;99.90;;;;;;5065664;28;20214;-73
2024/04/04 03:10:36;;;;;;;2.20;2.10;;;10.70;99.90;;;;;;5066469;28;20294;-72
2024/04/04 03:13:03;;;;;;;2.37;2.23;;;10.60;99.90;;;;;;5065685;28;20298;-72
2024/04/04 03:15:29;;;;;;;2.43;2.33;;;10.60;99.90;;;;;;5066290;28;20314;-72
2024/04/04 03:17:56;;;;;;;2.40;2.20;;;10.60;99.90;;;;;;5074822;28;20758;-73
2024/04/04 03:20:22;;;;;;;2.23;2.10;;;10.50;99.90;;;;;;5086711;28;20321;-72
2024/04/04 03:22:48;;;;;;;2.30;2.10;;;10.50;99.90;;;;;;5086221;28;20689;-72
2024/04/04 03:25:16;;;;;;;2.70;2.50;;;10.50;99.90;;;;;;5079261;28;20211;-72
2024/04/04 03:27:43;;;;;;;2.40;2.30;;;10.40;99.90;;;;;;5070133;28;20207;-73
2024/04/04 03:30:09;;;;;;;2.30;2.20;;;10.50;99.90;;;;;;5070259;28;20291;-72
2024/04/04 03:32:36;;;;;;;2.27;2.17;;;10.40;99.90;;;;;;5073807;28;20206;-72
2024/04/04 03:35:02;;;;;;;2.83;2.50;;;10.40;99.90;;;;;;5089553;28;20293;-72
2024/04/04 03:37:29;;;;;;;2.50;2.30;;;10.30;99.90;;;;;;5090144;28;20207;-72
2024/04/04 03:39:56;;;;;;;2.23;2.13;;;10.30;99.90;;;;;;5089986;28;20321;-72
2024/04/04 03:42:26;;;;;;;2.30;2.20;;;10.30;99.90;;;;;;5090409;28;20611;-72
2024/04/04 03:44:53;;;;;;;2.63;2.33;;;10.30;99.90;;;;;;5090548;28;20206;-72
2024/04/04 03:47:19;;;;;;;2.67;2.47;;;10.30;99.90;;;;;;5090314;28;20567;-72
2024/04/04 03:49:46;;;;;;;2.33;2.23;;;10.30;99.90;;;;;;5089884;28;20297;-73
2024/04/04 03:52:12;;;;;;;2.67;2.30;;;10.30;99.90;;;;;;5089541;28;20312;-72
2024/04/04 03:54:39;;;;;;;2.80;2.60;;;10.20;99.90;;;;;;5089899;28;20749;-73
2024/04/04 03:57:07;;;;;;;2.50;2.37;;;10.20;99.90;;;;;;5089915;28;20247;-72
2024/04/04 03:59:34;;;;;;;2.53;2.43;;;10.20;99.90;;;;;;5089758;28;20730;-72
2024/04/04 04:02:03;;;;;;;2.57;2.37;;;10.20;99.90;;;;;;5089936;28;20210;-72
2024/04/04 04:04:29;;;;;;;2.50;2.40;;;10.20;99.90;;;;;;5089339;28;20234;-73
2024/04/04 04:06:56;;;;;;;3.17;2.97;;;10.20;99.90;;;;;;5089785;28;20246;-72
2024/04/04 04:09:22;;;;;;;2.73;2.43;;;10.20;99.90;;;;;;5090172;28;20576;-73
2024/04/04 04:11:49;;;;;;;2.97;2.73;;;10.20;99.90;;;;;;5089544;28;20293;-73
2024/04/04 04:14:16;;;;;;;2.50;2.20;;;10.20;99.90;;;;;;5088888;28;20722;-72
2024/04/04 04:16:44;;;;;;;2.83;2.47;;;10.30;99.90;;;;;;5089744;28;20268;-72
2024/04/04 04:19:10;;;;;;;2.93;2.43;;;10.30;99.90;;;;;;5089177;28;20717;-72
2024/04/04 04:21:37;;;;;;;3.43;2.33;;;10.30;99.90;;;;;;5089422;28;20266;-73
2024/04/04 04:24:03;;;;;;;5.33;2.33;;;10.20;99.90;;;;;;5089579;28;20206;-72
2024/04/04 04:26:31;;;;;;;2.30;2.20;;;10.30;99.90;;;;;;5089301;28;20210;-72
2024/04/04 04:28:57;;;;;;;2.60;2.40;;;10.30;99.90;;;;;;5089430;28;20210;-72
2024/04/04 04:31:27;;;;;;;2.43;2.20;;;10.30;99.90;;;;;;5077475;28;20577;-72
2024/04/04 04:33:57;;;;;;;2.70;2.50;;;10.30;99.90;;;;;;5068657;28;20253;-72
2024/04/04 04:36:25;;;;;;;3.13;2.50;;;10.30;99.90;;;;;;5071775;28;20260;-72
2024/04/04 04:38:51;;;;;;;2.37;2.10;;;10.30;99.90;;;;;;5088387;28;20206;-72
2024/04/04 04:41:19;;;;;;;2.77;1.77;;;10.30;99.90;;;;;;5088930;28;20206;-72
2024/04/04 04:43:46;;;;;;;2.20;2.10;;;10.30;99.90;;;;;;5089277;28;20229;-73
2024/04/04 04:46:13;;;;;;;2.00;1.90;;;10.30;99.90;;;;;;5088877;28;20221;-72
2024/04/04 04:48:39;;;;;;;3.03;1.80;;;10.30;99.90;;;;;;5088624;28;20234;-72
2024/04/04 04:51:08;;;;;;;1.80;1.70;;;10.30;99.90;;;;;;5088458;28;20218;-72
2024/04/04 04:53:34;;;;;;;2.67;2.07;;;10.30;99.90;;;;;;5088377;28;20306;-72
2024/04/04 04:56:01;;;;;;;1.60;1.43;;;10.30;99.90;;;;;;5088771;28;20351;-72
2024/04/04 04:58:27;;;;;;;1.80;1.70;;;10.20;99.90;;;;;;5087470;28;20217;-72
2024/04/04 05:00:54;;;;;;;1.80;1.70;;;10.20;99.90;;;;;;5085750;28;20230;-72
2024/04/04 05:03:20;;;;;;;1.90;1.80;;;10.20;99.90;;;;;;5088462;28;20496;-72
2024/04/04 05:05:47;;;;;;;2.10;2.00;;;10.20;99.90;;;;;;5088398;28;20707;-72
2024/04/04 05:08:14;;;;;;;2.23;1.97;;;10.30;99.90;;;;;;5088158;28;20301;-72
2024/04/04 05:10:41;;;;;;;1.73;1.63;;;10.20;99.90;;;;;;5085385;28;20268;-72
2024/04/04 05:13:07;;;;;;;1.97;1.80;;;10.30;99.90;;;;;;5088521;28;20248;-72
2024/04/04 05:15:44;;;;;;;1.47;1.47;;;10.30;99.90;;;;;;5088034;28;20250;-72
2024/04/04 05:18:10;;;;;;;1.60;1.50;;;10.30;99.90;;;;;;5088074;28;20191;-72
2024/04/04 05:20:37;;;;;;;1.50;1.40;;;10.40;99.90;;;;;;5088529;28;20234;-73
2024/04/04 05:23:03;;;;;;;1.67;1.57;;;10.40;99.90;;;;;;5087866;28;20303;-73
2024/04/04 05:25:32;;;;;;;1.80;1.30;;;10.40;99.90;;;;;;5087985;28;20238;-74
2024/04/04 05:27:58;;;;;;;2.03;1.37;;;10.40;99.90;;;;;;5087633;28;20850;-72
2024/04/04 05:30:26;;;;;;;1.13;1.13;;;10.50;99.90;;;;;;5087855;28;20301;-72
2024/04/04 05:32:53;;;;;;;1.97;1.60;;;10.50;99.90;;;;;;5082047;28;20215;-72
2024/04/04 05:35:20;;;;;;;1.87;1.30;;;10.50;99.90;;;;;;5067480;28;20928;-72
2024/04/04 05:37:47;;;;;;;1.50;1.40;;;10.50;99.90;;;;;;5067333;28;20203;-72
2024/04/04 05:40:13;;;;;;;1.73;1.30;;;10.50;99.90;;;;;;5067244;28;20333;-72
2024/04/04 05:42:41;;;;;;;1.43;1.33;;;10.50;99.90;;;;;;5067345;28;20214;-72
2024/04/04 05:45:07;;;;;;;1.30;1.20;;;10.60;99.90;;;;;;5067237;28;20231;-72
2024/04/04 05:47:34;;;;;;;2.47;1.20;;;10.50;99.90;;;;;;5066972;28;20601;-72
2024/04/04 05:50:00;;;;;;;1.70;1.30;;;10.60;99.90;;;;;;5065926;28;20230;-72
2024/04/04 05:52:27;;;;;;;2.87;1.20;;;10.60;99.90;;;;;;5067038;28;20231;-72
2024/04/04 05:54:53;;;;;;;1.60;1.30;;;10.60;99.90;;;;;;5067085;28;20235;-72
2024/04/04 05:57:20;;;;;;;1.50;1.30;;;10.70;99.90;;;;;;5074191;28;21111;-72
2024/04/04 05:59:47;;;;;;;1.73;1.20;;;10.70;99.90;;;;;;5087242;28;20235;-72
2024/04/04 06:02:14;;;;;;;2.87;1.47;;;10.70;99.90;;;;;;5087433;28;20210;-72
2024/04/04 06:04:40;;;;;;;1.37;1.27;;;10.70;99.90;;;;;;5087521;28;20290;-72
2024/04/04 06:07:09;;;;;;;1.30;1.20;;;10.70;99.90;;;;;;5077666;28;20211;-72
2024/04/04 06:09:36;;;;;;;3.57;1.60;;;10.70;99.90;;;;;;5067023;28;20218;-72
2024/04/04 06:12:02;;;;;;;3.17;1.73;;;10.70;99.90;;;;;;5066495;28;20704;-72
2024/04/04 06:14:29;;;;;;;3.37;1.60;;;10.70;99.90;;;;;;5066850;28;20279;-72
2024/04/04 06:16:56;;;;;;;1.13;1.03;;;10.70;99.90;;;;;;5067240;28;20272;-72
2024/04/04 06:19:23;;;;;;;2.17;1.17;;;10.80;99.90;;;;;;5066935;28;20231;-72
2024/04/04 06:21:49;;;;;;;1.37;1.10;;;10.80;99.90;;;;;;5074144;28;20318;-72
2024/04/04 06:24:16;;;;;;;1.80;1.20;;;10.90;99.90;;;;;;5086767;28;20313;-72
2024/04/04 06:26:44;;;;;;;4.03;1.30;;;10.90;99.90;;;;;;5085344;28;20297;-72
2024/04/04 06:29:11;;;;;;;1.30;1.30;;;11.00;99.90;;;;;;5072470;28;20199;-73
2024/04/04 06:31:37;;;;;;;2.53;1.70;;;11.00;99.90;;;;;;5086621;28;20207;-72
2024/04/04 06:34:05;;;;;;;1.50;1.30;;;11.10;99.90;;;;;;5086797;28;20217;-72
2024/04/04 06:36:31;;;;;;;3.87;1.37;;;11.10;99.90;;;;;;5086996;28;20199;-72
2024/04/04 06:39:02;;;;;;;1.40;1.00;;;11.10;99.90;;;;;;5086642;28;20220;-72
2024/04/04 06:41:28;;;;;;;1.63;1.53;;;11.10;99.90;;;;;;5086865;28;20309;-72
2024/04/04 06:43:55;;;;;;;3.03;1.40;;;11.20;99.90;;;;;;5086796;28;20893;-72
2024/04/04 06:46:21;;;;;;;2.43;1.40;;;11.20;99.90;;;;;;5087109;28;20281;-72
2024/04/04 06:48:48;;;;;;;2.80;1.30;;;11.30;99.90;;;;;;5087383;28;20264;-72
2024/04/04 06:51:15;;;;;;;1.53;1.43;;;11.30;99.90;;;;;;5087155;28;20214;-73
2024/04/04 06:53:42;;;;;;;1.50;1.40;;;11.40;99.90;;;;;;5086317;28;20293;-72
2024/04/04 06:56:08;;;;;;;1.40;1.10;;;11.40;99.90;;;;;;5086805;28;20234;-72
2024/04/04 06:58:35;;;;;;;1.70;1.10;;;11.40;99.90;;;;;;5086659;28;20205;-72
2024/04/04 07:01:01;;;;;;;1.77;1.47;;;11.50;99.90;;;;;;5089442;28;20327;-73
2024/04/04 07:03:28;;;;;;;1.37;1.27;;;11.50;99.90;;;;;;5087525;28;20241;-72
2024/04/04 07:05:54;;;;;;;1.20;1.10;;;11.60;99.90;;;;;;5090430;28;20242;-73
2024/04/04 07:08:22;;;;;;;2.00;1.20;;;11.60;99.90;;;;;;5090737;28;20245;-72
2024/04/04 07:10:48;;;;;;;1.67;1.20;;;11.70;99.90;;;;;;5091127;28;20207;-72
2024/04/04 07:13:16;;;;;;;1.40;1.30;;;11.70;99.90;;;;;;5090417;28;20220;-73
2024/04/04 07:15:42;;;;;;;3.00;1.13;;;11.80;99.90;;;;;;5089956;28;20227;-73
2024/04/04 07:18:09;;;;;;;1.33;1.20;;;11.90;99.90;;;;;;5090733;28;20260;-73
2024/04/04 07:20:36;;;;;;;1.87;1.10;;;11.90;99.90;;;;;;5090301;28;20231;-73
2024/04/04 07:23:03;;;;;;;2.47;1.20;;;12.00;99.90;;;;;;5090365;28;20226;-73
2024/04/04 07:25:31;;;;;;;1.53;1.20;;;12.10;99.90;;;;;;5090188;28;20293;-73
2024/04/04 07:27:58;;;;;;;1.40;1.30;;;12.10;99.90;;;;;;5077679;28;20227;-73
2024/04/04 07:30:24;;;;;;;2.50;1.20;;;12.20;99.90;;;;;;5069865;28;20302;-73
2024/04/04 07:32:51;;;;;;;1.40;1.20;;;12.30;99.90;;;;;;5070118;28;20199;-73
2024/04/04 07:35:17;;;;;;;1.97;1.30;;;12.30;99.90;;;;;;5069774;28;20246;-73
2024/04/04 07:37:44;;;;;;;1.10;1.00;;;12.30;99.90;;;;;;5069848;28;20203;-73
2024/04/04 07:40:11;;;;;;;2.47;1.10;;;12.30;99.90;;;;;;5069672;28;20242;-73
2024/04/04 07:42:39;;;;;;;1.90;0.90;;;12.40;99.90;;;;;;5070140;28;20296;-73
2024/04/04 07:45:06;;;;;;;2.20;1.10;;;12.50;99.90;;;;;;5069953;28;20295;-73
2024/04/04 07:47:33;;;;;;;1.30;0.90;;;12.50;99.90;;;;;;5069912;28;20215;-73
2024/04/04 07:50:03;;;;;;;2.03;0.97;;;12.50;99.90;;;;;;5069733;28;20227;-73
2024/04/04 07:52:30;;;;;;;1.63;1.30;;;12.50;99.90;;;;;;5069772;28;20212;-73
2024/04/04 07:54:56;;;;;;;1.30;1.00;;;12.50;99.90;;;;;;5069242;28;20297;-73
2024/04/04 07:57:23;;;;;;;0.90;0.90;;;12.60;99.90;;;;;;5077148;28;20297;-73
2024/04/04 07:59:50;;;;;;;2.63;0.83;;;12.60;99.90;;;;;;5089265;28;20230;-73
2024/04/04 08:02:18;;;;;;;1.83;0.90;;;12.70;99.90;;;;;;5089440;28;20207;-73
2024/04/04 08:04:44;;;;;;;0.63;0.50;;;12.80;99.90;;;;;;5089084;28;20635;-73
2024/04/04 08:07:11;;;;;;;2.67;1.10;;;12.80;99.90;;;;;;5089170;28;20210;-73
2024/04/04 08:09:37;;;;;;;1.77;1.03;;;12.80;99.90;;;;;;5089314;28;20289;-73
2024/04/04 08:12:05;;;;;;;2.00;0.90;;;12.90;99.90;;;;;;5088479;28;20263;-73
2024/04/04 08:14:31;;;;;;;1.27;0.70;;;12.90;99.90;;;;;;5079724;28;20266;-73
2024/04/04 08:17:00;;;;;;;1.10;0.83;;;13.00;99.90;;;;;;5088601;28;20199;-73
2024/04/04 08:19:26;;;;;;;2.50;1.10;;;13.00;99.90;;;;;;5089114;28;20297;-73
2024/04/04 08:21:53;;;;;;;1.00;0.70;;;13.10;99.90;;;;;;5088933;28;20223;-73
2024/04/04 08:24:19;;;;;;;2.90;1.23;;;13.20;99.90;;;;;;5089032;28;20298;-73
2024/04/04 08:26:46;;;;;;;3.07;1.10;;;13.30;99.90;;;;;;5088785;28;20673;-73
2024/04/04 08:29:13;;;;;;;4.53;1.30;;;13.30;99.90;;;;;;5088567;28;20740;-73
2024/04/04 08:31:39;;;;;;;3.00;1.00;;;13.40;99.90;;;;;;5089034;28;20293;-73
2024/04/04 08:34:07;;;;;;;3.10;1.17;;;13.50;99.90;;;;;;5088744;28;20937;-73
2024/04/04 08:36:34;;;;;;;0.87;0.87;;;13.60;99.90;;;;;;5088245;28;20210;-73
2024/04/04 08:39:00;;;;;;;2.50;0.93;;;13.60;99.90;;;;;;5088331;28;20710;-73
2024/04/04 08:41:27;;;;;;;2.23;0.90;;;13.70;99.90;;;;;;5088455;28;20246;-73
2024/04/04 08:43:56;;;;;;;1.73;1.23;;;13.70;99.90;;;;;;5088263;28;20577;-73
2024/04/04 08:46:23;;;;;;;1.27;0.80;;;13.70;99.90;;;;;;5088504;28;20202;-73
2024/04/04 08:48:52;;;;;;;0.70;0.70;;;13.70;99.90;;;;;;5088516;28;20211;-73
2024/04/04 08:51:21;;;;;;;1.17;0.90;;;13.80;99.90;;;;;;5087905;28;20689;-73
2024/04/04 08:53:47;;;;;;;1.43;0.90;;;13.70;99.90;;;;;;5088332;28;20684;-73
2024/04/04 08:56:14;;;;;;;2.07;0.83;;;13.80;99.90;;;;;;5085169;28;20740;-73
2024/04/04 08:58:39;;;;;;;1.43;1.00;;;13.80;99.90;;;;;;5088436;28;20217;-73
2024/04/04 09:01:06;;;;;;;1.73;0.83;;;13.90;99.90;;;;;;5087768;28;20227;-73
2024/04/04 09:03:32;;;;;;;1.50;0.70;;;14.00;99.90;;;;;;5087941;28;20752;-73
2024/04/04 09:06:02;;;;;;;2.60;0.70;;;14.00;99.90;;;;;;5087816;28;20297;-73
2024/04/04 09:08:30;;;;;;;0.97;0.43;;;14.10;99.90;;;;;;5088250;28;20211;-73
2024/04/04 09:11:00;;;;;;;1.87;0.87;;;14.10;99.90;;;;;;5077322;28;20207;-73
2024/04/04 09:13:26;;;;;;;2.20;0.70;;;14.10;99.90;;;;;;5067970;28;20215;-73
2024/04/04 09:16:00;;;;;;;1.60;0.70;;;14.00;99.90;;;;;;5067289;28;20250;-73
2024/04/04 09:18:26;;;;;;;1.33;0.67;;;14.10;99.90;;;;;;5077434;28;20753;-73
2024/04/04 09:20:53;;;;;;;1.93;0.60;;;14.10;99.90;;;;;;5087564;28;20249;-73
2024/04/04 09:23:19;;;;;;;1.50;0.87;;;14.10;99.90;;;;;;5086997;28;20210;-73
2024/04/04 09:25:47;;;;;;;1.47;0.30;;;14.20;99.90;;;;;;5087741;28;20236;-73
2024/04/04 09:28:19;;;;;;;0.53;0.47;;;14.30;99.90;;;;;;5088029;28;20234;-73
2024/04/04 09:30:49;;;;;;;1.33;0.50;;;14.20;99.90;;;;;;5088099;28;20383;-73
2024/04/04 09:33:18;;;;;;;0.57;0.40;;;14.30;99.90;;;;;;5087951;28;20605;-73
2024/04/04 09:35:47;;;;;;;0.67;0.63;;;14.20;99.90;;;;;;5087621;28;20211;-73
2024/04/04 09:38:13;;;;;;;1.07;0.70;;;14.20;99.90;;;;;;5087899;28;20211;-73
2024/04/04 09:40:43;;;;;;;1.63;0.70;;;14.10;99.90;;;;;;5087732;28;20269;-73
2024/04/04 09:43:10;;;;;;;1.67;0.73;;;14.10;99.90;;;;;;5088120;28;20211;-73
2024/04/04 09:45:40;;;;;;;1.27;0.57;;;14.00;99.90;;;;;;5087997;28;20206;-73
2024/04/04 09:48:07;;;;;;;1.67;0.73;;;14.00;99.90;;;;;;5087678;28;20238;-73
2024/04/04 09:50:35;;;;;;;3.50;0.80;;;13.90;99.90;;;;;;5087618;28;20230;-73
2024/04/04 09:53:02;;;;;;;0.97;0.63;;;13.90;99.90;;;;;;5084025;28;20210;-73
2024/04/04 09:55:31;;;;;;;1.13;0.67;;;13.80;99.90;;;;;;5087500;28;20206;-73
2024/04/04 09:57:57;;;;;;;0.90;0.50;;;13.80;99.90;;;;;;5087227;28;20210;-73
2024/04/04 10:00:28;;;;;;;2.73;0.80;;;13.70;99.90;;;;;;5087429;28;20238;-73
2024/04/04 10:02:56;;;;;;;1.33;0.60;;;13.60;99.90;;;;;;5086893;28;20206;-73
2024/04/04 10:05:25;;;;;;;1.73;0.80;;;13.60;99.90;;;;;;5087151;28;20607;-73
2024/04/04 10:07:51;;;;;;;2.57;1.00;;;13.60;99.90;;;;;;5083689;28;20851;-73
2024/04/04 10:10:20;;;;;;;1.37;0.53;;;13.60;99.90;;;;;;5087239;28;20297;-73
2024/04/04 10:12:50;;;;;;;1.63;0.60;;;13.70;99.90;;;;;;5087070;28;20289;-73
2024/04/04 10:15:18;;;;;;;3.77;0.80;;;13.70;99.90;;;;;;5071605;28;20274;-73
2024/04/04 10:17:48;;;;;;;2.33;1.00;;;13.70;99.90;;;;;;5067009;28;20252;-73
2024/04/04 10:20:17;;;;;;;2.50;1.07;;;13.70;99.90;;;;;;5066729;28;20220;-73
2024/04/04 10:22:43;;;;;;;3.20;2.60;;;13.80;99.90;;;;;;5066189;28;20270;-73
2024/04/04 10:25:10;;;;;;;3.10;1.53;;;13.80;99.90;;;;;;5066207;28;20239;-74
2024/04/04 10:27:37;;;;;;;1.30;0.60;;;13.90;99.90;;;;;;5076441;28;20546;-73
2024/04/04 10:30:05;;;;;;;4.57;1.10;;;13.90;99.90;;;;;;5086811;28;20260;-73
2024/04/04 10:32:31;;;;;;;1.67;1.07;;;13.90;99.90;;;;;;5086781;28;20267;-73
2024/04/04 10:35:04;;;;;;;1.63;0.67;;;13.80;99.90;;;;;;5085831;28;20202;-73
2024/04/04 10:37:30;;;;;;;0.93;0.80;;;13.80;99.90;;;;;;5086630;28;20234;-73
2024/04/04 10:39:57;;;;;;;1.63;0.80;;;13.70;99.90;;;;;;5086761;28;20207;-73
2024/04/04 10:42:24;;;;;;;2.00;0.80;;;13.60;99.90;;;;;;5086650;28;20203;-73
2024/04/04 10:44:53;;;;;;;2.33;0.60;;;13.50;99.90;;;;;;5086693;28;20203;-73
2024/04/04 10:47:19;;;;;;;1.97;0.80;;;13.40;99.90;;;;;;5086554;28;20210;-73
2024/04/04 10:49:46;;;;;;;1.80;0.93;;;13.40;99.90;;;;;;5086676;28;20203;-73
2024/04/04 10:52:15;;;;;;;1.87;0.80;;;13.20;99.90;;;;;;5086262;28;20210;-73
2024/04/04 10:54:42;;;;;;;2.00;1.00;;;13.20;99.90;;;;;;5084244;28;20280;-73
2024/04/04 10:57:08;;;;;;;2.20;1.27;;;13.20;99.90;;;;;;5072039;28;20252;-73
2024/04/04 10:59:35;;;;;;;3.70;1.13;;;13.20;99.90;;;;;;5086693;28;20693;-73
2024/04/04 11:02:04;;;;;;;2.87;1.07;;;13.10;99.90;;;;;;5086311;28;20321;-73
2024/04/04 11:04:32;;;;;;;3.40;1.33;;;13.10;99.90;;;;;;5086036;28;20203;-73
2024/04/04 11:06:58;;;;;;;3.13;1.10;;;13.00;99.90;;;;;;5086116;28;20759;-73
2024/04/04 11:09:27;;;;;;;2.57;0.90;;;13.00;99.90;;;;;;5086313;28;20301;-73
2024/04/04 11:11:55;;;;;;;1.77;1.20;;;13.00;99.90;;;;;;5086247;28;20309;-74
2024/04/04 11:14:22;;;;;;;2.47;1.10;;;12.90;99.90;;;;;;5086315;28;20235;-73
2024/04/04 11:16:51;;;;;;;2.13;1.13;;;12.90;99.90;;;;;;5086667;28;20234;-73
2024/04/04 11:19:20;;;;;;;1.83;1.10;;;12.90;99.90;;;;;;5086534;28;20288;-74
2024/04/04 11:21:47;;;;;;;2.13;1.20;;;12.90;99.90;;;;;;5086183;28;20242;-73
2024/04/04 11:24:14;;;;;;;2.27;1.03;;;12.90;99.90;;;;;;5086528;28;20199;-73
2024/04/04 11:26:41;;;;;;;2.97;1.07;;;12.90;99.90;;;;;;5086322;28;20288;-73
2024/04/04 11:29:09;;;;;;;2.50;1.27;;;12.90;99.90;;;;;;5086051;28;20219;-73
2024/04/04 11:31:35;;;;;;;3.17;1.27;;;12.90;99.90;;;;;;5085867;28;20726;-73
2024/04/04 11:34:02;;;;;;;4.17;1.40;;;12.90;99.90;;;;;;5085943;28;20218;-73
2024/04/04 11:36:28;;;;;;;2.40;0.83;;;12.90;99.90;;;;;;5086116;28;20268;-73
2024/04/04 11:38:56;;;;;;;2.40;0.97;;;12.90;99.90;;;;;;5085992;28;20202;-73
2024/04/04 11:41:22;;;;;;;1.83;1.00;;;12.90;99.90;;;;;;5086598;28;20244;-74
2024/04/04 11:43:50;;;;;;;2.37;1.20;;;13.00;99.90;;;;;;5083720;28;20211;-73
2024/04/04 11:46:17;;;;;;;2.87;1.00;;;13.00;99.90;;;;;;5065893;28;20199;-73
2024/04/04 11:48:44;;;;;;;3.70;1.30;;;13.10;99.90;;;;;;5069660;28;20218;-74
2024/04/04 11:51:11;;;;;;;2.17;1.17;;;13.10;99.90;;;;;;5069133;28;20290;-73
2024/04/04 11:53:38;;;;;;;4.57;1.23;;;13.10;99.90;;;;;;5069619;28;20246;-73
2024/04/04 11:56:06;;;;;;;2.60;1.30;;;13.10;99.90;;;;;;5068938;28;20758;-73
2024/04/04 11:58:34;;;;;;;1.83;1.30;;;13.20;99.90;;;;;;5085474;28;20293;-73
2024/04/04 12:01:02;;;;;;;1.10;1.10;;;13.10;99.90;;;;;;5080331;28;20233;-73
2024/04/04 12:03:29;;;;;;;2.17;1.23;;;13.10;99.90;;;;;;5089370;28;20750;-73
2024/04/04 12:05:55;;;;;;;1.90;1.50;;;13.10;99.90;;;;;;5089472;28;20283;-73
2024/04/04 12:08:22;;;;;;;1.70;1.20;;;13.10;99.90;;;;;;5078335;28;20206;-73
2024/04/04 12:10:48;;;;;;;2.40;1.47;;;13.10;99.90;;;;;;5089875;28;20220;-73
2024/04/04 12:13:15;;;;;;;3.43;1.50;;;13.10;99.90;;;;;;5089045;28;20202;-73
2024/04/04 12:15:44;;;;;;;2.50;1.17;;;13.20;99.90;;;;;;5088932;28;20600;-73
2024/04/04 12:20:56;;;;;;;2.37;1.07;;;13.10;99.90;;;;;;5088611;28;20245;-73
2024/04/04 12:23:23;;;;;;;1.57;1.20;;;13.10;99.90;;;;;;5089189;28;20305;-73
2024/04/04 12:25:51;;;;;;;4.20;1.60;;;13.10;99.90;;;;;;5089098;28;20293;-73
2024/04/04 12:28:18;;;;;;;4.20;1.70;;;13.00;99.90;;;;;;5088902;28;20242;-73
2024/04/04 12:30:46;;;;;;;2.77;1.70;;;13.00;99.90;;;;;;5088828;28;20337;-73
2024/04/04 12:33:13;;;;;;;2.17;1.90;;;12.90;99.90;;;;;;5088721;28;20207;-73
2024/04/04 12:35:40;;;;;;;3.73;1.87;;;12.80;99.90;;;;;;5089123;28;20215;-73
2024/04/04 12:38:06;;;;;;;2.77;1.87;;;12.90;99.90;;;;;;5088631;28;20625;-73
2024/04/04 12:40:33;;;;;;;2.90;2.27;;;12.80;99.90;;;;;;5085211;28;20264;-74
2024/04/04 12:42:59;;;;;;;2.97;2.07;;;12.80;99.90;;;;;;5088358;28;21006;-74
2024/04/04 12:45:26;;;;;;;2.67;2.30;;;12.80;99.90;;;;;;5088709;28;20249;-73
2024/04/04 12:47:52;;;;;;;4.20;2.43;;;12.80;99.90;;;;;;5088438;28;20248;-74
2024/04/04 12:50:23;;;;;;;2.50;2.33;;;12.80;99.90;;;;;;5088110;28;20253;-73